createdAt,value
2019-05-06T00:00:55.378Z,44.81
2019-05-06T00:03:15.775Z,43.64
2019-05-06T00:05:45.492Z,44.03
2019-05-06T00:08:15.234Z,42.87
2019-05-06T00:10:44.950Z,42.70
2019-05-06T00:13:14.593Z,43.00
2019-05-06T00:15:44.200Z,43.18
2019-05-06T00:18:14.013Z,42.62
2019-05-06T00:20:43.881Z,42.72
2019-05-06T00:23:19.064Z,42.80
2019-05-06T00:26:13.783Z,43.87
2019-05-06T00:28:46.809Z,44.48
2019-05-06T00:31:18.061Z,45.50
2019-05-06T00:33:47.683Z,44.81
2019-05-06T00:36:17.285Z,44.28
2019-05-06T00:38:49.862Z,44.52
2019-05-06T00:41:26.788Z,46.01
2019-05-06T00:43:56.377Z,44.02
2019-05-06T00:46:26.107Z,45.64
2019-05-06T00:48:55.846Z,44.15
2019-05-06T00:51:25.459Z,48.51
2019-05-06T00:54:04.071Z,48.46
2019-05-06T00:56:34.225Z,45.02
2019-05-06T00:59:03.978Z,42.67
2019-05-06T01:01:34.459Z,43.59
2019-05-06T01:04:04.971Z,46.74
2019-05-06T01:06:34.758Z,43.40
2019-05-06T01:09:07.661Z,43.23
2019-05-06T01:11:37.221Z,42.57
2019-05-06T01:14:17.851Z,42.65
2019-05-06T01:16:47.383Z,42.09
2019-05-06T01:19:16.912Z,41.98
2019-05-06T01:21:46.442Z,44.98
2019-05-06T01:24:16.026Z,42.42
2019-05-06T01:26:45.592Z,42.30
2019-05-06T01:29:15.187Z,42.92
2019-05-06T01:31:46.184Z,44.73
2019-05-06T01:34:15.754Z,41.84
2019-05-06T01:36:45.345Z,41.64
2019-05-06T01:39:31.407Z,42.76
2019-05-06T01:42:15.068Z,43.89
2019-05-06T01:44:44.658Z,43.51
2019-05-06T01:47:14.621Z,43.23
2019-05-06T01:49:44.362Z,42.75
2019-05-06T01:52:14.722Z,42.83
2019-05-06T01:54:44.383Z,43.46
2019-05-06T01:57:14.002Z,44.25
2019-05-06T01:59:44.330Z,43.60
2019-05-06T02:02:14.402Z,44.10
2019-05-06T02:04:44.469Z,44.67
2019-05-06T02:07:14.539Z,44.88
2019-05-06T02:09:44.805Z,44.82
2019-05-06T02:12:14.458Z,46.26
2019-05-06T02:14:43.965Z,46.95
2019-05-06T02:17:14.448Z,46.28
2019-05-06T02:19:44.190Z,44.33
2019-05-06T02:22:24.132Z,44.25
2019-05-06T02:25:04.452Z,45.46
2019-05-06T02:27:34.165Z,45.42
2019-05-06T02:30:26.393Z,45.17
2019-05-06T02:33:10.797Z,44.77
2019-05-06T02:36:03.017Z,45.96
2019-05-06T02:38:46.007Z,45.72
2019-05-06T02:41:04.885Z,45.00
2019-05-06T02:43:34.840Z,44.71
2019-05-06T02:46:04.574Z,44.61
2019-05-06T02:49:08.358Z,44.70
2019-05-06T02:51:37.907Z,45.17
2019-05-06T02:54:07.590Z,46.19
2019-05-06T02:56:37.119Z,46.14
2019-05-06T02:59:06.734Z,46.48
2019-05-06T03:01:36.308Z,47.87
2019-05-06T03:04:05.899Z,46.96
2019-05-06T03:06:35.386Z,46.00
2019-05-06T03:09:06.292Z,46.13
2019-05-06T03:11:35.878Z,48.39
2019-05-06T03:14:05.477Z,48.52
2019-05-06T03:16:35.046Z,48.67
2019-05-06T03:19:04.643Z,48.96
2019-05-06T03:21:46.393Z,49.59
2019-05-06T03:24:33.360Z,47.21
2019-05-06T03:27:04.606Z,44.95
2019-05-06T03:29:34.171Z,46.77
2019-05-06T03:32:07.004Z,44.91
2019-05-06T03:34:58.698Z,44.58
2019-05-06T03:37:08.434Z,46.01
2019-05-06T03:39:37.698Z,46.77
2019-05-06T03:42:07.213Z,45.93
2019-05-06T03:44:38.464Z,45.86
2019-05-06T03:47:23.827Z,46.19
2019-05-06T03:49:54.648Z,45.67
2019-05-06T03:52:27.674Z,45.54
2019-05-06T03:54:59.062Z,45.47
2019-05-06T03:57:29.646Z,45.75
2019-05-06T04:00:04.296Z,45.53
2019-05-06T04:02:33.652Z,45.96
2019-05-06T04:05:03.942Z,45.83
2019-05-06T04:07:34.486Z,47.38
2019-05-06T04:10:04.923Z,46.58
2019-05-06T04:12:35.119Z,48.50
2019-05-06T04:15:05.267Z,47.75
2019-05-06T04:17:46.494Z,47.03
2019-05-06T04:20:28.929Z,48.05
2019-05-06T04:23:17.625Z,46.98
2019-05-06T04:26:04.825Z,48.03
2019-05-06T04:28:36.179Z,47.04
2019-05-06T04:31:06.252Z,45.88
2019-05-06T04:33:35.968Z,48.29
2019-05-06T04:36:05.520Z,48.96
2019-05-06T04:38:35.237Z,47.25
2019-05-06T04:41:04.780Z,47.19
2019-05-06T04:43:34.716Z,45.92
2019-05-06T04:46:04.324Z,46.91
2019-05-06T04:48:33.984Z,47.61
2019-05-06T04:51:03.998Z,51.19
2019-05-06T04:53:34.206Z,47.40
2019-05-06T04:56:04.395Z,46.70
2019-05-06T04:58:34.373Z,48.34
2019-05-06T05:01:04.461Z,49.13
2019-05-06T05:03:34.073Z,50.80
2019-05-06T05:06:05.730Z,49.13
2019-05-06T05:08:38.078Z,49.08
2019-05-06T05:11:15.526Z,48.49
2019-05-06T05:14:02.980Z,47.95
2019-05-06T05:16:42.065Z,48.43
2019-05-06T05:19:12.640Z,47.49
2019-05-06T05:21:42.898Z,47.24
2019-05-06T05:24:12.661Z,49.15
2019-05-06T05:26:46.573Z,49.86
2019-05-06T05:29:14.089Z,48.58
2019-05-06T05:31:43.773Z,50.15
2019-05-06T05:34:13.288Z,51.52
2019-05-06T05:36:43.173Z,51.66
2019-05-06T05:39:12.790Z,51.11
2019-05-06T05:41:43.007Z,50.03
2019-05-06T05:44:32.910Z,49.81
2019-05-06T05:47:03.483Z,50.22
2019-05-06T05:49:42.074Z,49.35
2019-05-06T05:52:12.674Z,49.05
2019-05-06T05:54:42.442Z,50.15
2019-05-06T05:57:12.477Z,48.25
2019-05-06T05:59:42.281Z,49.66
2019-05-06T06:02:12.822Z,48.29
2019-05-06T06:04:53.746Z,50.15
2019-05-06T06:07:14.455Z,48.63
2019-05-06T06:09:52.511Z,48.80
2019-05-06T06:12:23.003Z,48.44
2019-05-06T06:15:14.688Z,48.55
2019-05-06T06:18:15.658Z,48.97
2019-05-06T06:20:55.301Z,48.68
2019-05-06T06:23:32.282Z,48.17
2019-05-06T06:26:04.027Z,48.30
2019-05-06T06:28:33.356Z,45.65
2019-05-06T06:31:12.351Z,46.98
2019-05-06T06:33:42.741Z,47.44
2019-05-06T06:36:23.196Z,48.84
2019-05-06T06:38:56.386Z,47.77
2019-05-06T06:42:12.630Z,47.20
2019-05-06T06:44:52.187Z,47.22
2019-05-06T06:47:22.638Z,48.70
2019-05-06T06:49:53.504Z,47.46
2019-05-06T06:52:23.357Z,46.91
2019-05-06T06:54:52.950Z,47.70
2019-05-06T06:57:42.394Z,48.40
2019-05-06T07:00:33.087Z,47.00
2019-05-06T07:03:05.886Z,46.82
2019-05-06T07:05:49.355Z,48.82
2019-05-06T07:08:32.050Z,47.06
2019-05-06T07:10:52.412Z,47.76
2019-05-06T07:13:23.201Z,47.56
2019-05-06T07:15:52.788Z,47.20
2019-05-06T07:18:22.662Z,48.45
2019-05-06T07:21:22.379Z,47.62
2019-05-06T07:23:53.018Z,46.39
2019-05-06T07:26:24.608Z,45.97
2019-05-06T07:28:54.225Z,46.29
2019-05-06T07:31:26.630Z,46.22
2019-05-06T07:33:55.052Z,45.94
2019-05-06T07:36:24.665Z,45.84
2019-05-06T07:38:54.300Z,45.75
2019-05-06T07:41:36.184Z,45.74
2019-05-06T07:44:15.281Z,45.72
2019-05-06T07:47:18.833Z,46.91
2019-05-06T07:49:48.428Z,46.86
2019-05-06T07:52:18.135Z,45.60
2019-05-06T07:54:47.708Z,46.75
2019-05-06T07:57:17.393Z,45.79
2019-05-06T07:59:48.227Z,44.21
2019-05-06T08:02:17.978Z,46.00
2019-05-06T08:04:47.539Z,43.38
2019-05-06T08:07:17.215Z,43.85
2019-05-06T08:09:46.897Z,44.59
2019-05-06T08:12:16.414Z,42.20
2019-05-06T08:14:46.132Z,42.94
2019-05-06T08:17:27.473Z,43.05
2019-05-06T08:19:57.020Z,44.91
2019-05-06T08:22:43.986Z,45.00
2019-05-06T08:25:13.822Z,45.39
2019-05-06T08:27:43.409Z,43.36
2019-05-06T08:30:13.467Z,44.52
2019-05-06T08:32:43.020Z,41.48
2019-05-06T08:35:13.739Z,44.48
2019-05-06T08:37:43.424Z,44.57
2019-05-06T08:40:54.967Z,45.03
2019-05-06T08:44:13.595Z,42.45
2019-05-06T08:46:44.520Z,42.05
2019-05-06T08:49:14.111Z,43.44
2019-05-06T08:51:53.822Z,43.71
2019-05-06T08:54:45.010Z,43.35
2019-05-06T08:57:14.615Z,43.49
2019-05-06T08:59:44.142Z,43.29
2019-05-06T09:02:13.960Z,42.96
2019-05-06T09:04:43.460Z,42.66
2019-05-06T09:07:13.073Z,42.02
2019-05-06T09:09:42.650Z,40.44
2019-05-06T09:12:13.019Z,42.41
2019-05-06T09:14:43.165Z,42.67
2019-05-06T09:17:12.792Z,37.91
2019-05-06T09:19:42.763Z,33.58
2019-05-06T09:22:12.969Z,33.09
2019-05-06T09:25:18.096Z,36.28
2019-05-06T09:28:13.239Z,40.64
2019-05-06T09:30:46.677Z,40.01
2019-05-06T09:33:18.612Z,39.35
2019-05-06T09:35:48.133Z,41.80
2019-05-06T09:38:17.642Z,41.67
2019-05-06T09:40:47.203Z,41.89
2019-05-06T09:43:16.719Z,41.86
2019-05-06T09:45:46.262Z,41.93
2019-05-06T09:48:22.430Z,40.59
2019-05-06T09:50:53.698Z,37.54
2019-05-06T09:53:29.590Z,40.88
2019-05-06T09:56:22.997Z,41.24
2019-05-06T09:58:53.037Z,39.45
2019-05-06T10:01:22.653Z,41.32
2019-05-06T10:03:53.102Z,41.48
2019-05-06T10:06:22.741Z,39.88
2019-05-06T10:08:52.350Z,41.59
2019-05-06T10:11:22.338Z,35.70
2019-05-06T10:13:52.502Z,33.06
2019-05-06T10:16:22.023Z,40.15
2019-05-06T10:18:52.410Z,39.18
2019-05-06T10:21:22.970Z,39.65
2019-05-06T10:23:52.910Z,41.43
2019-05-06T10:26:23.495Z,41.55
2019-05-06T10:29:19.538Z,40.34
2019-05-06T10:31:54.657Z,41.56
2019-05-06T10:34:33.828Z,39.11
2019-05-06T10:37:19.003Z,40.36
2019-05-06T10:39:52.192Z,40.44
2019-05-06T10:42:26.431Z,38.42
2019-05-06T10:45:14.864Z,40.64
2019-05-06T10:47:44.480Z,41.46
2019-05-06T10:50:14.132Z,40.75
2019-05-06T10:53:02.718Z,41.64
2019-05-06T10:55:32.664Z,40.18
2019-05-06T10:58:02.770Z,40.53
2019-05-06T11:00:33.149Z,41.37
2019-05-06T11:03:14.386Z,39.91
2019-05-06T11:05:43.289Z,41.35
2019-05-06T11:08:13.218Z,41.37
2019-05-06T11:10:45.310Z,40.97
2019-05-06T11:13:14.013Z,40.88
2019-05-06T11:15:46.563Z,41.21
2019-05-06T11:18:16.110Z,41.18
2019-05-06T11:20:45.712Z,39.81
2019-05-06T11:23:15.236Z,35.45
2019-05-06T11:25:44.893Z,39.55
2019-05-06T11:28:34.933Z,37.77
2019-05-06T11:31:17.395Z,39.69
2019-05-06T11:34:24.445Z,40.70
2019-05-06T11:37:15.060Z,40.31
2019-05-06T11:39:44.609Z,40.79
2019-05-06T11:42:27.993Z,40.72
2019-05-06T11:44:45.557Z,40.85
2019-05-06T11:47:15.131Z,40.41
2019-05-06T11:49:44.718Z,35.91
2019-05-06T11:52:14.305Z,31.42
2019-05-06T11:54:43.878Z,34.67
2019-05-06T11:57:14.423Z,37.57
2019-05-06T11:59:46.042Z,31.90
2019-05-06T12:02:18.909Z,34.66
2019-05-06T12:04:48.532Z,36.81
2019-05-06T12:07:18.093Z,37.48
2019-05-06T12:09:47.645Z,37.71
2019-05-06T12:12:17.230Z,39.52
2019-05-06T12:14:46.713Z,39.82
2019-05-06T12:17:16.346Z,40.13
2019-05-06T12:19:45.867Z,39.49
2019-05-06T12:22:15.461Z,40.34
2019-05-06T12:24:44.955Z,39.83
2019-05-06T12:27:33.536Z,40.50
2019-05-06T12:30:05.369Z,40.59
2019-05-06T12:32:43.309Z,40.67
2019-05-06T12:35:13.114Z,40.38
2019-05-06T12:37:44.466Z,40.87
2019-05-06T12:40:14.054Z,40.87
2019-05-06T12:42:53.262Z,40.79
2019-05-06T12:45:32.996Z,40.87
2019-05-06T12:48:09.464Z,40.80
2019-05-06T12:50:38.951Z,40.89
2019-05-06T12:53:08.496Z,40.88
2019-05-06T12:55:38.124Z,39.74
2019-05-06T12:58:07.634Z,40.72
2019-05-06T13:00:37.180Z,40.90
2019-05-06T13:03:06.721Z,40.16
2019-05-06T13:05:36.242Z,40.55
2019-05-06T13:08:06.690Z,40.74
2019-05-06T13:10:36.379Z,40.91
2019-05-06T13:13:05.977Z,40.86
2019-05-06T13:15:35.628Z,40.91
2019-05-06T13:18:07.107Z,40.71
2019-05-06T13:20:37.093Z,40.89
2019-05-06T13:23:20.850Z,40.95
2019-05-06T13:25:48.652Z,40.78
2019-05-06T13:28:22.231Z,38.36
2019-05-06T13:30:53.086Z,40.54
2019-05-06T13:33:35.312Z,40.87
2019-05-06T13:36:05.029Z,40.79
2019-05-06T13:38:34.544Z,38.61
2019-05-06T13:41:04.452Z,40.16
2019-05-06T13:43:45.460Z,38.80
2019-05-06T13:46:23.128Z,35.87
2019-05-06T13:49:09.699Z,34.44
2019-05-06T13:51:39.955Z,35.73
2019-05-06T13:54:12.868Z,37.33
2019-05-06T13:56:42.557Z,37.36
2019-05-06T13:59:12.927Z,34.31
2019-05-06T14:02:06.794Z,32.91
2019-05-06T14:04:35.655Z,32.75
2019-05-06T14:07:07.369Z,29.67
2019-05-06T14:09:40.279Z,29.36
2019-05-06T14:12:07.810Z,31.90
2019-05-06T14:14:37.327Z,31.47
2019-05-06T14:17:06.919Z,32.86
2019-05-06T14:19:36.618Z,31.66
2019-05-06T14:22:06.167Z,25.36
2019-05-06T14:24:37.382Z,25.26
2019-05-06T14:27:11.358Z,32.35
2019-05-06T14:29:49.994Z,29.11
2019-05-06T14:32:19.780Z,27.08
2019-05-06T14:34:49.295Z,28.24
2019-05-06T14:37:18.805Z,32.65
2019-05-06T14:39:58.081Z,28.43
2019-05-06T14:42:22.277Z,27.73
2019-05-06T14:44:51.751Z,30.92
2019-05-06T14:47:26.482Z,29.11
2019-05-06T14:49:56.638Z,28.91
2019-05-06T14:52:26.193Z,34.43
2019-05-06T14:54:59.773Z,33.60
2019-05-06T14:57:29.290Z,33.91
2019-05-06T14:59:58.835Z,33.04
2019-05-06T15:02:28.559Z,31.58
2019-05-06T15:04:58.217Z,35.21
2019-05-06T15:07:27.837Z,38.49
2019-05-06T15:10:15.016Z,42.33
2019-05-06T15:12:28.915Z,41.59
2019-05-06T15:14:58.549Z,38.99
2019-05-06T15:17:28.116Z,40.47
2019-05-06T15:19:57.735Z,41.82
2019-05-06T15:22:27.225Z,42.03
2019-05-06T15:24:56.942Z,42.25
2019-05-06T15:27:26.559Z,41.47
2019-05-06T15:29:57.919Z,42.95
2019-05-06T15:32:36.163Z,43.39
2019-05-06T15:35:33.107Z,43.50
2019-05-06T15:38:08.332Z,43.41
2019-05-06T15:40:38.033Z,43.31
2019-05-06T15:43:07.851Z,43.01
2019-05-06T15:45:37.975Z,42.31
2019-05-06T15:48:07.554Z,42.30
2019-05-06T15:50:37.387Z,41.51
2019-05-06T15:53:07.318Z,41.27
2019-05-06T15:55:37.045Z,41.20
2019-05-06T15:58:06.852Z,41.06
2019-05-06T16:00:36.683Z,40.45
2019-05-06T16:03:06.375Z,40.04
2019-05-06T16:05:35.985Z,39.09
2019-05-06T16:08:05.606Z,38.24
2019-05-06T16:10:51.419Z,37.29
2019-05-06T16:13:06.580Z,37.17
2019-05-06T16:15:36.191Z,37.22
2019-05-06T16:18:05.777Z,36.90
2019-05-06T16:20:35.707Z,36.83
2019-05-06T16:23:12.398Z,36.91
2019-05-06T16:25:42.313Z,38.35
2019-05-06T16:28:13.262Z,41.34
2019-05-06T16:30:42.798Z,38.56
2019-05-06T16:33:15.284Z,37.03
2019-05-06T16:35:45.246Z,37.75
2019-05-06T16:38:15.149Z,39.18
2019-05-06T16:40:45.431Z,37.24
2019-05-06T16:43:14.965Z,37.64
2019-05-06T16:45:46.036Z,38.32
2019-05-06T16:48:15.798Z,37.77
2019-05-06T16:50:45.404Z,37.89
2019-05-06T16:53:15.152Z,37.75
2019-05-06T16:56:02.258Z,40.99
2019-05-06T16:58:34.414Z,39.39
2019-05-06T17:01:04.188Z,38.60
2019-05-06T17:03:43.357Z,38.23
2019-05-06T17:06:18.600Z,38.24
2019-05-06T17:08:48.324Z,38.35
2019-05-06T17:11:27.905Z,39.32
2019-05-06T17:13:49.285Z,39.02
2019-05-06T17:16:18.931Z,38.82
2019-05-06T17:18:48.544Z,39.41
2019-05-06T17:21:18.093Z,39.74
2019-05-06T17:23:47.703Z,39.89
2019-05-06T17:26:17.320Z,40.41
2019-05-06T17:29:18.017Z,41.19
2019-05-06T17:31:57.159Z,42.02
2019-05-06T17:34:31.182Z,42.04
2019-05-06T17:37:06.433Z,42.71
2019-05-06T17:39:36.091Z,42.38
2019-05-06T17:42:05.746Z,42.96
2019-05-06T17:44:35.222Z,42.53
2019-05-06T17:47:17.944Z,42.04
2019-05-06T17:49:47.431Z,42.18
2019-05-06T17:52:22.355Z,42.07
2019-05-06T17:54:52.746Z,42.46
2019-05-06T17:57:22.614Z,43.66
2019-05-06T17:59:52.932Z,42.75
2019-05-06T18:02:24.138Z,42.59
2019-05-06T18:04:53.649Z,43.41
2019-05-06T18:07:23.298Z,44.21
2019-05-06T18:09:52.837Z,43.75
2019-05-06T18:12:23.215Z,43.22
2019-05-06T18:14:53.470Z,43.82
2019-05-06T18:17:23.131Z,43.25
2019-05-06T18:19:52.778Z,43.51
2019-05-06T18:22:22.782Z,43.96
2019-05-06T18:24:52.643Z,44.71
2019-05-06T18:27:22.731Z,44.65
2019-05-06T18:29:53.216Z,44.55
2019-05-06T18:32:23.457Z,44.85
2019-05-06T18:34:53.202Z,45.52
2019-05-06T18:37:23.357Z,45.16
2019-05-06T18:39:53.194Z,45.66
2019-05-06T18:42:23.769Z,45.98
2019-05-06T18:44:53.412Z,46.17
2019-05-06T18:47:23.104Z,46.26
2019-05-06T18:49:52.662Z,45.68
2019-05-06T18:52:22.965Z,46.32
2019-05-06T18:54:52.683Z,46.32
2019-05-06T18:57:22.749Z,46.12
2019-05-06T18:59:53.315Z,46.65
2019-05-06T19:02:23.152Z,46.71
2019-05-06T19:05:09.029Z,47.94
2019-05-06T19:07:38.691Z,46.90
2019-05-06T19:10:22.439Z,48.07
2019-05-06T19:12:52.784Z,48.19
2019-05-06T19:15:22.519Z,47.62
2019-05-06T19:17:52.720Z,47.79
2019-05-06T19:20:24.500Z,47.49
2019-05-06T19:22:53.703Z,47.46
2019-05-06T19:25:26.339Z,46.96
2019-05-06T19:27:54.617Z,46.62
2019-05-06T19:30:24.308Z,47.63
2019-05-06T19:32:54.543Z,47.74
2019-05-06T19:35:24.156Z,46.94
2019-05-06T19:37:53.723Z,46.90
2019-05-06T19:40:23.261Z,47.21
2019-05-06T19:42:53.367Z,48.03
2019-05-06T19:45:23.041Z,47.31
2019-05-06T19:47:52.555Z,46.58
2019-05-06T19:50:25.706Z,46.45
2019-05-06T19:52:53.422Z,47.64
2019-05-06T19:55:23.212Z,47.65
2019-05-06T19:57:52.781Z,47.93
2019-05-06T20:00:23.730Z,47.07
2019-05-06T20:02:53.528Z,46.84
2019-05-06T20:05:35.434Z,47.26
2019-05-06T20:08:23.016Z,47.19
2019-05-06T20:11:09.946Z,48.87
2019-05-06T20:13:39.568Z,48.33
2019-05-06T20:16:09.148Z,49.12
2019-05-06T20:18:38.730Z,48.36
2019-05-06T20:21:08.382Z,48.77
2019-05-06T20:23:38.013Z,47.87
2019-05-06T20:26:07.619Z,48.20
2019-05-06T20:28:37.176Z,48.38
2019-05-06T20:31:06.784Z,48.37
2019-05-06T20:33:36.373Z,48.07
2019-05-06T20:36:06.074Z,50.16
2019-05-06T20:38:35.692Z,49.67
2019-05-06T20:41:05.343Z,49.64
2019-05-06T20:43:35.210Z,49.58
2019-05-06T20:46:04.918Z,49.86
2019-05-06T20:48:34.550Z,49.33
2019-05-06T20:51:04.092Z,49.04
2019-05-06T20:53:33.844Z,48.69
2019-05-06T20:56:03.684Z,48.62
2019-05-06T20:58:33.267Z,49.29
2019-05-06T21:01:03.053Z,49.50
2019-05-06T21:03:32.873Z,49.42
2019-05-06T21:06:02.678Z,50.13
2019-05-06T21:08:32.843Z,50.11
2019-05-06T21:11:04.067Z,49.95
2019-05-06T21:13:35.562Z,49.58
2019-05-06T21:16:05.347Z,49.21
2019-05-06T21:18:34.935Z,50.51
2019-05-06T21:21:04.642Z,50.29
2019-05-06T21:23:34.319Z,50.96
2019-05-06T21:26:03.971Z,50.90
2019-05-06T21:28:33.608Z,50.77
2019-05-06T21:31:03.266Z,50.59
2019-05-06T21:33:33.060Z,50.00
2019-05-06T21:36:03.167Z,49.26
2019-05-06T21:38:32.837Z,49.77
2019-05-06T21:41:02.417Z,49.26
2019-05-06T21:43:43.812Z,49.73
2019-05-06T21:46:03.476Z,49.49
2019-05-06T21:48:33.719Z,49.38
2019-05-06T21:51:03.379Z,49.25
2019-05-06T21:53:33.009Z,48.64
2019-05-06T21:56:02.577Z,48.85
2019-05-06T21:58:32.158Z,49.06
2019-05-06T22:01:06.554Z,49.96
2019-05-06T22:03:36.296Z,50.01
2019-05-06T22:06:06.007Z,50.77
2019-05-06T22:08:35.496Z,51.49
2019-05-06T22:11:05.326Z,51.40
2019-05-06T22:13:34.883Z,50.76
2019-05-06T22:16:05.017Z,50.43
2019-05-06T22:18:34.633Z,49.06
2019-05-06T22:21:12.512Z,49.44
2019-05-06T22:23:55.617Z,49.88
2019-05-06T22:26:25.496Z,49.32
2019-05-06T22:28:55.327Z,48.42
2019-05-06T22:31:25.535Z,48.44
2019-05-06T22:33:55.329Z,48.67
2019-05-06T22:36:25.029Z,48.24
2019-05-06T22:38:54.626Z,47.41
2019-05-06T22:41:25.427Z,49.85
2019-05-06T22:43:55.132Z,48.48
2019-05-06T22:46:24.723Z,48.23
2019-05-06T22:48:54.770Z,46.88
2019-05-06T22:51:24.651Z,46.24
2019-05-06T22:53:54.553Z,46.60
2019-05-06T22:56:24.453Z,46.57
2019-05-06T22:58:54.004Z,46.48
2019-05-06T23:01:54.343Z,46.48
2019-05-06T23:04:24.086Z,48.28
2019-05-06T23:06:53.889Z,49.36
2019-05-06T23:09:24.948Z,49.37
2019-05-06T23:11:54.675Z,48.92
2019-05-06T23:14:31.275Z,50.09
2019-05-06T23:16:55.453Z,50.23
2019-05-06T23:19:25.117Z,50.39
2019-05-06T23:21:54.654Z,52.08
2019-05-06T23:24:24.254Z,50.63
2019-05-06T23:26:54.787Z,49.22
2019-05-06T23:29:24.534Z,48.91
2019-05-06T23:31:54.127Z,51.22
2019-05-06T23:34:23.745Z,52.95
2019-05-06T23:37:27.365Z,52.62
2019-05-06T23:40:38.301Z,52.21
2019-05-06T23:43:43.700Z,53.11
2019-05-06T23:46:49.059Z,52.82
2019-05-06T23:49:54.348Z,51.70
2019-05-06T23:52:59.687Z,52.37
2019-05-06T23:56:05.056Z,51.34
2019-05-06T23:58:34.540Z,51.47
